sensor_id;sensor_type;location;lat;lon;timestamp;pressure;altitude;pressure_sealevel;temperature;humidity
11643;BME280;5877;50.930;6.918;2023-02-02T00:03:57;101472.97;;;7.52;71.99
11643;BME280;5877;50.930;6.918;2023-02-02T00:08:49;101484.72;;;7.56;72.67
11643;BME280;5877;50.930;6.918;2023-02-02T00:13:41;101527.03;;;7.82;72.61
11643;BME280;5877;50.930;6.918;2023-02-02T00:18:32;101527.25;;;7.73;72.67
11643;BME280;5877;50.930;6.918;2023-02-02T00:23:25;101536.44;;;7.61;73.35
11643;BME280;5877;50.930;6.918;2023-02-02T00:28:17;101510.09;;;7.39;73.76
11643;BME280;5877;50.930;6.918;2023-02-02T00:33:09;101522.94;;;7.49;73.83
11643;BME280;5877;50.930;6.918;2023-02-02T00:38:01;101424.75;;;6.84;73.92
11643;BME280;5877;50.930;6.918;2023-02-02T00:42:52;101450.31;;;7.05;73.79
11643;BME280;5877;50.930;6.918;2023-02-02T00:47:47;101469.97;;;7.32;73.60
11643;BME280;5877;50.930;6.918;2023-02-02T00:52:39;101428.84;;;7.26;72.78
11643;BME280;5877;50.930;6.918;2023-02-02T00:57:31;101513.31;;;7.80;72.69
11643;BME280;5877;50.930;6.918;2023-02-02T01:02:24;101444.28;;;7.44;72.98
11643;BME280;5877;50.930;6.918;2023-02-02T01:07:15;101512.16;;;7.83;73.37
11643;BME280;5877;50.930;6.918;2023-02-02T01:12:07;101519.31;;;7.89;72.52
11643;BME280;5877;50.930;6.918;2023-02-02T01:16:59;101520.75;;;7.92;72.68
11643;BME280;5877;50.930;6.918;2023-02-02T01:21:50;101451.59;;;7.48;72.21
11643;BME280;5877;50.930;6.918;2023-02-02T01:26:43;101522.22;;;7.94;72.41
11643;BME280;5877;50.930;6.918;2023-02-02T01:31:35;101531.34;;;7.98;72.28
11643;BME280;5877;50.930;6.918;2023-02-02T01:36:27;101546.06;;;7.99;73.60
11643;BME280;5877;50.930;6.918;2023-02-02T01:41:21;101551.31;;;7.91;76.18
11643;BME280;5877;50.930;6.918;2023-02-02T01:46:20;101551.94;;;7.70;77.45
11643;BME280;5877;50.930;6.918;2023-02-02T01:51:19;101553.59;;;7.63;78.03
11643;BME280;5877;50.930;6.918;2023-02-02T01:56:17;101550.88;;;7.48;79.07
11643;BME280;5877;50.930;6.918;2023-02-02T02:01:12;101512.72;;;7.31;78.06
11643;BME280;5877;50.930;6.918;2023-02-02T02:06:12;101561.94;;;7.59;77.25
11643;BME280;5877;50.930;6.918;2023-02-02T02:11:05;101460.28;;;6.94;76.58
11643;BME280;5877;50.930;6.918;2023-02-02T02:16:29;101527.84;;;7.52;76.49
11643;BME280;5877;50.930;6.918;2023-02-02T02:42:19;101533.00;;;7.68;76.11
11643;BME280;5877;50.930;6.918;2023-02-02T02:47:13;101534.13;;;7.74;75.61
11643;BME280;5877;50.930;6.918;2023-02-02T02:52:07;101510.75;;;7.72;75.44
11643;BME280;5877;50.930;6.918;2023-02-02T02:57:07;101542.84;;;7.89;74.76
11643;BME280;5877;50.930;6.918;2023-02-02T03:02:41;101541.19;;;7.88;74.61
11643;BME280;5877;50.930;6.918;2023-02-02T03:08:03;101551.53;;;7.81;75.64
11643;BME280;5877;50.930;6.918;2023-02-02T03:12:56;101491.44;;;7.51;74.94
11643;BME280;5877;50.930;6.918;2023-02-02T03:17:51;101544.81;;;7.87;75.33
11643;BME280;5877;50.930;6.918;2023-02-02T03:22:43;101481.25;;;7.25;76.55
11643;BME280;5877;50.930;6.918;2023-02-02T03:27:35;101514.78;;;7.52;76.09
11643;BME280;5877;50.930;6.918;2023-02-02T03:32:28;101556.50;;;7.68;76.88
11643;BME280;5877;50.930;6.918;2023-02-02T03:37:19;101517.75;;;7.41;77.13
11643;BME280;5877;50.930;6.918;2023-02-02T03:42:11;101516.63;;;7.35;76.74
11643;BME280;5877;50.930;6.918;2023-02-02T03:47:02;101571.19;;;7.69;76.93
11643;BME280;5877;50.930;6.918;2023-02-02T03:51:54;101568.59;;;7.69;77.14
11643;BME280;5877;50.930;6.918;2023-02-02T03:56:46;101532.25;;;7.43;77.43
11643;BME280;5877;50.930;6.918;2023-02-02T04:01:37;101566.47;;;7.65;76.96
11643;BME280;5877;50.930;6.918;2023-02-02T04:06:30;101561.25;;;7.65;77.11
11643;BME280;5877;50.930;6.918;2023-02-02T04:11:22;101566.63;;;7.71;77.00
11643;BME280;5877;50.930;6.918;2023-02-02T04:16:13;101568.25;;;7.72;76.94
11643;BME280;5877;50.930;6.918;2023-02-02T04:21:06;101529.81;;;7.42;76.74
11643;BME280;5877;50.930;6.918;2023-02-02T04:25:58;101524.78;;;7.40;76.65
11643;BME280;5877;50.930;6.918;2023-02-02T04:30:51;101576.09;;;7.72;76.54
11643;BME280;5877;50.930;6.918;2023-02-02T04:35:44;101586.06;;;7.69;77.67
11643;BME280;5877;50.930;6.918;2023-02-02T04:40:43;101584.28;;;7.61;77.74
11643;BME280;5877;50.930;6.918;2023-02-02T04:45:36;101573.56;;;7.40;79.11
11643;BME280;5877;50.930;6.918;2023-02-02T04:50:28;101562.03;;;7.26;80.15
11643;BME280;5877;50.930;6.918;2023-02-02T04:55:20;101535.28;;;7.08;79.73
11643;BME280;5877;50.930;6.918;2023-02-02T05:00:12;101576.06;;;7.25;80.21
11643;BME280;5877;50.930;6.918;2023-02-02T05:05:06;101602.47;;;7.38;80.28
11643;BME280;5877;50.930;6.918;2023-02-02T05:09:58;101600.66;;;7.39;80.34
11643;BME280;5877;50.930;6.918;2023-02-02T05:14:49;101603.28;;;7.39;80.76
11643;BME280;5877;50.930;6.918;2023-02-02T05:19:41;101522.28;;;6.83;80.49
11643;BME280;5877;50.930;6.918;2023-02-02T05:24:33;101572.97;;;7.13;80.79
11643;BME280;5877;50.930;6.918;2023-02-02T05:29:25;101534.50;;;6.83;80.17
11643;BME280;5877;50.930;6.918;2023-02-02T05:34:17;101564.81;;;7.08;80.61
11643;BME280;5877;50.930;6.918;2023-02-02T05:39:09;101601.34;;;7.25;81.07
11643;BME280;5877;50.930;6.918;2023-02-02T05:44:01;101598.41;;;7.28;81.59
11643;BME280;5877;50.930;6.918;2023-02-02T05:48:53;101585.53;;;7.10;81.47
11643;BME280;5877;50.930;6.918;2023-02-02T05:53:46;101551.28;;;6.97;81.98
11643;BME280;5877;50.930;6.918;2023-02-02T05:58:38;101535.97;;;6.94;81.62
11643;BME280;5877;50.930;6.918;2023-02-02T06:03:29;101590.75;;;7.26;81.43
11643;BME280;5877;50.930;6.918;2023-02-02T06:08:21;101593.34;;;7.26;81.21
11643;BME280;5877;50.930;6.918;2023-02-02T06:13:13;101554.56;;;6.99;80.65
11643;BME280;5877;50.930;6.918;2023-02-02T06:18:04;101570.84;;;7.09;80.21
11643;BME280;5877;50.930;6.918;2023-02-02T06:22:58;101609.03;;;7.26;79.59
11643;BME280;5877;50.930;6.918;2023-02-02T06:27:54;101619.09;;;7.45;79.02
11643;BME280;5877;50.930;6.918;2023-02-02T06:32:46;101635.09;;;7.42;79.15
11643;BME280;5877;50.930;6.918;2023-02-02T06:37:37;101639.69;;;7.40;78.72
11643;BME280;5877;50.930;6.918;2023-02-02T06:42:29;101647.34;;;7.50;78.49
11643;BME280;5877;50.930;6.918;2023-02-02T06:47:21;101636.09;;;7.49;78.85
11643;BME280;5877;50.930;6.918;2023-02-02T06:52:12;101643.59;;;7.44;78.75
11643;BME280;5877;50.930;6.918;2023-02-02T06:57:04;101633.63;;;7.48;78.48
11643;BME280;5877;50.930;6.918;2023-02-02T07:01:55;101648.50;;;7.39;78.47
11643;BME280;5877;50.930;6.918;2023-02-02T07:06:47;101643.59;;;7.44;78.74
11643;BME280;5877;50.930;6.918;2023-02-02T07:11:39;101640.00;;;7.45;78.49
11643;BME280;5877;50.930;6.918;2023-02-02T07:16:35;101594.66;;;7.14;77.95
11643;BME280;5877;50.930;6.918;2023-02-02T07:21:27;101548.84;;;6.87;77.51
11643;BME280;5877;50.930;6.918;2023-02-02T07:26:20;101604.63;;;7.27;77.54
11643;BME280;5877;50.930;6.918;2023-02-02T07:31:13;101671.16;;;7.55;77.48
11643;BME280;5877;50.930;6.918;2023-02-02T07:36:05;101664.97;;;7.64;78.11
11643;BME280;5877;50.930;6.918;2023-02-02T07:40:59;101668.06;;;7.60;77.26
11643;BME280;5877;50.930;6.918;2023-02-02T07:45:51;101620.09;;;7.36;77.27
11643;BME280;5877;50.930;6.918;2023-02-02T07:50:42;101680.13;;;7.77;77.22
11643;BME280;5877;50.930;6.918;2023-02-02T07:55:34;101645.72;;;7.49;77.13
11643;BME280;5877;50.930;6.918;2023-02-02T08:00:26;101686.81;;;7.71;77.43
11643;BME280;5877;50.930;6.918;2023-02-02T08:05:18;101629.41;;;7.31;78.07
11643;BME280;5877;50.930;6.918;2023-02-02T08:10:10;101577.72;;;7.10;78.43
11643;BME280;5877;50.930;6.918;2023-02-02T08:15:02;101656.31;;;7.47;78.07
11643;BME280;5877;50.930;6.918;2023-02-02T08:19:54;101678.66;;;7.66;78.26
11643;BME280;5877;50.930;6.918;2023-02-02T08:24:45;101695.66;;;7.70;78.67
11643;BME280;5877;50.930;6.918;2023-02-02T08:29:38;101471.75;;;6.28;78.41
11643;BME280;5877;50.930;6.918;2023-02-02T08:34:30;101624.03;;;7.32;78.90
11643;BME280;5877;50.930;6.918;2023-02-02T08:39:21;101694.81;;;7.78;78.73
11643;BME280;5877;50.930;6.918;2023-02-02T08:44:14;101694.81;;;7.78;78.06
11643;BME280;5877;50.930;6.918;2023-02-02T08:49:09;101703.09;;;7.81;78.07
11643;BME280;5877;50.930;6.918;2023-02-02T08:54:01;101708.22;;;7.75;78.10
11643;BME280;5877;50.930;6.918;2023-02-02T08:58:54;101712.94;;;7.79;78.28
11643;BME280;5877;50.930;6.918;2023-02-02T09:03:47;101656.97;;;7.41;78.96
11643;BME280;5877;50.930;6.918;2023-02-02T09:08:39;101710.81;;;7.75;78.58
11643;BME280;5877;50.930;6.918;2023-02-02T09:13:31;101724.22;;;7.80;78.37
11643;BME280;5877;50.930;6.918;2023-02-02T09:18:22;101694.34;;;7.74;78.66
11643;BME280;5877;50.930;6.918;2023-02-02T09:23:14;101737.16;;;8.21;77.65
11643;BME280;5877;50.930;6.918;2023-02-02T09:28:06;101702.41;;;8.04;76.69
11643;BME280;5877;50.930;6.918;2023-02-02T09:32:58;101739.13;;;8.19;76.54
11643;BME280;5877;50.930;6.918;2023-02-02T09:37:49;101688.25;;;7.82;77.17
11643;BME280;5877;50.930;6.918;2023-02-02T09:42:53;101764.94;;;8.38;76.82
11643;BME280;5877;50.930;6.918;2023-02-02T09:47:53;101777.50;;;8.42;76.79
11643;BME280;5877;50.930;6.918;2023-02-02T09:52:54;101780.31;;;8.33;78.14
11643;BME280;5877;50.930;6.918;2023-02-02T09:57:51;101790.59;;;8.26;77.82
11643;BME280;5877;50.930;6.918;2023-02-02T10:02:44;101806.13;;;8.36;77.54
11643;BME280;5877;50.930;6.918;2023-02-02T10:07:43;101763.00;;;8.07;78.61
11643;BME280;5877;50.930;6.918;2023-02-02T10:12:53;101828.22;;;8.33;78.54
11643;BME280;5877;50.930;6.918;2023-02-02T10:17:57;101778.72;;;7.99;78.66
11643;BME280;5877;50.930;6.918;2023-02-02T10:22:49;101830.31;;;8.38;78.33
11643;BME280;5877;50.930;6.918;2023-02-02T10:27:48;101802.06;;;8.33;77.65
11643;BME280;5877;50.930;6.918;2023-02-02T10:33:05;101844.38;;;8.45;77.87
11643;BME280;5877;50.930;6.918;2023-02-02T10:48:38;101843.34;;;8.62;75.53
11643;BME280;5877;50.930;6.918;2023-02-02T10:53:32;101787.66;;;8.29;74.97
11643;BME280;5877;50.930;6.918;2023-02-02T10:58:28;101720.88;;;7.94;74.91
11643;BME280;5877;50.930;6.918;2023-02-02T11:03:30;101850.91;;;8.96;74.14
11643;BME280;5877;50.930;6.918;2023-02-02T11:08:34;101744.50;;;8.33;73.41
11643;BME280;5877;50.930;6.918;2023-02-02T11:13:30;101846.13;;;9.08;73.11
11643;BME280;5877;50.930;6.918;2023-02-02T11:18:29;101804.44;;;8.98;73.02
11643;BME280;5877;50.930;6.918;2023-02-02T11:23:21;101766.41;;;8.79;72.20
11643;BME280;5877;50.930;6.918;2023-02-02T11:28:21;101758.16;;;8.91;71.50
11643;BME280;5877;50.930;6.918;2023-02-02T11:33:31;101847.28;;;9.36;71.22
11643;BME280;5877;50.930;6.918;2023-02-02T11:38:26;101811.03;;;9.17;71.39
11643;BME280;5877;50.930;6.918;2023-02-02T11:43:25;101798.88;;;9.24;70.85
11643;BME280;5877;50.930;6.918;2023-02-02T11:48:21;101843.22;;;9.57;70.09
11643;BME280;5877;50.930;6.918;2023-02-02T11:58:18;101823.94;;;9.50;70.16
11643;BME280;5877;50.930;6.918;2023-02-02T12:03:23;101832.31;;;9.68;68.50
11643;BME280;5877;50.930;6.918;2023-02-02T12:08:16;101826.84;;;9.77;68.87
11643;BME280;5877;50.930;6.918;2023-02-02T12:24:04;101819.84;;;10.07;68.26
11643;BME280;5877;50.930;6.918;2023-02-02T12:29:29;101832.25;;;10.14;67.61
11643;BME280;5877;50.930;6.918;2023-02-02T12:34:46;101824.25;;;10.30;66.88
11643;BME280;5877;50.930;6.918;2023-02-02T12:40:15;101829.03;;;10.56;65.95
11643;BME280;5877;50.930;6.918;2023-02-02T13:01:00;101799.16;;;11.07;62.98
11643;BME280;5877;50.930;6.918;2023-02-02T13:11:36;101780.47;;;11.38;61.07
11643;BME280;5877;50.930;6.918;2023-02-02T13:16:30;101781.03;;;11.13;61.84
11643;BME280;5877;50.930;6.918;2023-02-02T13:21:23;101752.72;;;10.57;62.71
11643;BME280;5877;50.930;6.918;2023-02-02T13:31:17;101801.84;;;10.78;62.09
11643;BME280;5877;50.930;6.918;2023-02-02T13:36:29;101843.56;;;11.02;62.35
11643;BME280;5877;50.930;6.918;2023-02-02T13:41:29;101845.97;;;11.19;61.39
11643;BME280;5877;50.930;6.918;2023-02-02T13:46:30;101838.50;;;11.37;61.53
11643;BME280;5877;50.930;6.918;2023-02-02T14:01:29;101787.94;;;10.63;63.00
11643;BME280;5877;50.930;6.918;2023-02-02T14:06:24;101821.06;;;10.64;63.93
11643;BME280;5877;50.930;6.918;2023-02-02T14:11:24;101822.59;;;10.58;63.89
11643;BME280;5877;50.930;6.918;2023-02-02T14:16:44;101727.84;;;9.94;63.94
11643;BME280;5877;50.930;6.918;2023-02-02T14:26:45;101844.25;;;10.60;63.66
11643;BME280;5877;50.930;6.918;2023-02-02T14:31:51;101851.38;;;10.66;64.27
11643;BME280;5877;50.930;6.918;2023-02-02T14:42:12;101845.41;;;10.58;64.06
11643;BME280;5877;50.930;6.918;2023-02-02T14:47:47;101853.28;;;10.43;65.04
11643;BME280;5877;50.930;6.918;2023-02-02T14:52:39;101851.94;;;10.32;65.33
11643;BME280;5877;50.930;6.918;2023-02-02T14:57:32;101854.22;;;10.35;65.06
11643;BME280;5877;50.930;6.918;2023-02-02T15:12:19;101870.28;;;9.95;66.65
11643;BME280;5877;50.930;6.918;2023-02-02T15:22:34;101886.19;;;9.93;67.23
11643;BME280;5877;50.930;6.918;2023-02-02T15:27:29;101877.00;;;9.97;68.16
11643;BME280;5877;50.930;6.918;2023-02-02T15:32:24;101853.56;;;9.73;67.56
11643;BME280;5877;50.930;6.918;2023-02-02T15:37:21;101892.03;;;10.03;66.92
11643;BME280;5877;50.930;6.918;2023-02-02T15:42:17;101804.88;;;9.33;66.65
11643;BME280;5877;50.930;6.918;2023-02-02T15:47:33;101841.97;;;9.44;66.84
11643;BME280;5877;50.930;6.918;2023-02-02T15:52:30;101904.69;;;9.77;67.25
11643;BME280;5877;50.930;6.918;2023-02-02T15:57:31;101825.72;;;9.26;67.11
11643;BME280;5877;50.930;6.918;2023-02-02T16:02:33;101912.88;;;9.74;67.14
11643;BME280;5877;50.930;6.918;2023-02-02T16:07:30;101931.88;;;9.76;66.99
11643;BME280;5877;50.930;6.918;2023-02-02T16:12:24;101929.31;;;9.68;66.94
11643;BME280;5877;50.930;6.918;2023-02-02T16:22:17;101872.75;;;9.20;67.36
11643;BME280;5877;50.930;6.918;2023-02-02T16:27:15;101924.69;;;9.47;67.74
11643;BME280;5877;50.930;6.918;2023-02-02T16:32:28;101947.53;;;9.61;68.04
11643;BME280;5877;50.930;6.918;2023-02-02T16:37:26;101940.84;;;9.59;67.89
11643;BME280;5877;50.930;6.918;2023-02-02T16:42:29;101940.69;;;9.52;67.42
11643;BME280;5877;50.930;6.918;2023-02-02T16:52:19;101905.78;;;9.29;67.55
11643;BME280;5877;50.930;6.918;2023-02-02T16:57:25;101962.97;;;9.56;67.84
11643;BME280;5877;50.930;6.918;2023-02-02T17:02:32;101796.28;;;8.54;67.37
11643;BME280;5877;50.930;6.918;2023-02-02T17:07:27;101960.53;;;9.47;67.96
11643;BME280;5877;50.930;6.918;2023-02-02T17:12:23;101961.97;;;9.57;67.25
11643;BME280;5877;50.930;6.918;2023-02-02T17:17:26;101972.31;;;9.51;67.57
11643;BME280;5877;50.930;6.918;2023-02-02T17:22:22;101952.91;;;9.37;67.77
11643;BME280;5877;50.930;6.918;2023-02-02T17:27:16;101977.59;;;9.42;67.92
11643;BME280;5877;50.930;6.918;2023-02-02T17:32:11;101974.38;;;9.32;69.00
11643;BME280;5877;50.930;6.918;2023-02-02T17:37:03;101910.34;;;8.88;69.01
11643;BME280;5877;50.930;6.918;2023-02-02T17:41:56;101989.56;;;9.37;69.05
11643;BME280;5877;50.930;6.918;2023-02-02T17:46:47;101943.34;;;9.05;69.78
11643;BME280;5877;50.930;6.918;2023-02-02T17:51:40;102000.25;;;9.27;71.35
11643;BME280;5877;50.930;6.918;2023-02-02T17:56:33;102003.25;;;9.16;73.10
11643;BME280;5877;50.930;6.918;2023-02-02T18:01:25;102000.34;;;8.95;74.32
11643;BME280;5877;50.930;6.918;2023-02-02T18:06:16;102023.56;;;8.98;75.45
11643;BME280;5877;50.930;6.918;2023-02-02T18:11:11;102025.88;;;8.85;76.59
11643;BME280;5877;50.930;6.918;2023-02-02T18:16:04;102029.31;;;8.77;77.99
11643;BME280;5877;50.930;6.918;2023-02-02T18:20:56;102004.13;;;8.60;78.49
11643;BME280;5877;50.930;6.918;2023-02-02T18:25:49;102036.34;;;8.68;79.24
11643;BME280;5877;50.930;6.918;2023-02-02T18:30:44;101975.47;;;8.18;80.45
11643;BME280;5877;50.930;6.918;2023-02-02T18:35:44;102042.25;;;8.54;82.00
11643;BME280;5877;50.930;6.918;2023-02-02T18:40:36;101955.69;;;7.99;82.21
11643;BME280;5877;50.930;6.918;2023-02-02T18:45:28;101925.63;;;7.78;82.31
11643;BME280;5877;50.930;6.918;2023-02-02T18:50:20;101985.94;;;8.26;82.10
11643;BME280;5877;50.930;6.918;2023-02-02T18:55:12;101962.88;;;8.13;81.82
11643;BME280;5877;50.930;6.918;2023-02-02T19:00:05;101957.66;;;8.21;80.72
11643;BME280;5877;50.930;6.918;2023-02-02T19:04:57;101928.06;;;8.12;79.59
11643;BME280;5877;50.930;6.918;2023-02-02T19:10:07;102016.72;;;8.72;78.96
11643;BME280;5877;50.930;6.918;2023-02-02T19:15:00;101947.53;;;8.26;78.60
11643;BME280;5877;50.930;6.918;2023-02-02T19:19:51;101923.66;;;8.21;77.54
11643;BME280;5877;50.930;6.918;2023-02-02T19:24:43;102010.34;;;8.83;77.55
11643;BME280;5877;50.930;6.918;2023-02-02T19:29:37;101967.00;;;8.64;76.52
11643;BME280;5877;50.930;6.918;2023-02-02T19:34:28;101992.19;;;8.73;76.39
11643;BME280;5877;50.930;6.918;2023-02-02T19:39:28;102002.31;;;8.85;76.07
11643;BME280;5877;50.930;6.918;2023-02-02T19:44:28;101956.53;;;8.56;75.39
11643;BME280;5877;50.930;6.918;2023-02-02T19:49:30;101947.38;;;8.52;75.33
11643;BME280;5877;50.930;6.918;2023-02-02T19:59:17;102024.06;;;9.01;75.03
11643;BME280;5877;50.930;6.918;2023-02-02T20:04:14;101950.31;;;8.65;74.79
11643;BME280;5877;50.930;6.918;2023-02-02T20:09:12;102005.56;;;9.03;74.63
11643;BME280;5877;50.930;6.918;2023-02-02T20:19:24;101952.59;;;8.76;74.70
11643;BME280;5877;50.930;6.918;2023-02-02T20:24:21;102010.81;;;8.95;75.25
11643;BME280;5877;50.930;6.918;2023-02-02T20:29:27;102017.06;;;8.69;75.93
11643;BME280;5877;50.930;6.918;2023-02-02T20:34:32;102017.22;;;8.43;76.80
11643;BME280;5877;50.930;6.918;2023-02-02T20:39:34;101903.06;;;7.69;77.45
11643;BME280;5877;50.930;6.918;2023-02-02T20:44:28;102021.47;;;8.53;77.05
11643;BME280;5877;50.930;6.918;2023-02-02T20:49:20;102024.59;;;8.56;76.73
11643;BME280;5877;50.930;6.918;2023-02-02T20:54:15;101952.59;;;8.20;76.51
11643;BME280;5877;50.930;6.918;2023-02-02T20:59:07;101925.78;;;8.09;76.31
11643;BME280;5877;50.930;6.918;2023-02-02T21:04:00;102028.84;;;8.73;76.05
11643;BME280;5877;50.930;6.918;2023-02-02T21:08:51;102037.00;;;8.78;75.91
11643;BME280;5877;50.930;6.918;2023-02-02T21:13:44;102028.81;;;8.82;75.66
11643;BME280;5877;50.930;6.918;2023-02-02T21:18:36;102038.81;;;8.78;75.88
11643;BME280;5877;50.930;6.918;2023-02-02T21:23:27;101923.66;;;8.05;75.96
11643;BME280;5877;50.930;6.918;2023-02-02T21:28:19;102008.72;;;8.58;76.14
11643;BME280;5877;50.930;6.918;2023-02-02T21:33:10;102010.19;;;8.60;75.93
11643;BME280;5877;50.930;6.918;2023-02-02T21:38:09;102021.16;;;8.56;75.76
11643;BME280;5877;50.930;6.918;2023-02-02T21:43:16;101983.03;;;8.37;75.40
11643;BME280;5877;50.930;6.918;2023-02-02T21:58:34;102083.97;;;9.04;74.99
11643;BME280;5877;50.930;6.918;2023-02-02T22:03:38;102078.06;;;9.10;74.82
11643;BME280;5877;50.930;6.918;2023-02-02T22:08:34;102034.88;;;8.90;74.59
11643;BME280;5877;50.930;6.918;2023-02-02T22:13:32;102078.69;;;9.21;74.43
11643;BME280;5877;50.930;6.918;2023-02-02T22:18:25;101972.72;;;8.60;74.52
11643;BME280;5877;50.930;6.918;2023-02-02T22:23:24;102076.41;;;9.26;74.17
11643;BME280;5877;50.930;6.918;2023-02-02T22:28:23;101961.63;;;8.58;73.61
11643;BME280;5877;50.930;6.918;2023-02-02T22:33:15;102073.78;;;9.18;73.77
11643;BME280;5877;50.930;6.918;2023-02-02T22:38:07;102018.19;;;8.83;73.91
11643;BME280;5877;50.930;6.918;2023-02-02T22:43:01;102077.88;;;9.20;74.18
11643;BME280;5877;50.930;6.918;2023-02-02T22:47:53;102070.19;;;9.27;73.88
11643;BME280;5877;50.930;6.918;2023-02-02T22:52:45;102072.16;;;9.25;73.99
11643;BME280;5877;50.930;6.918;2023-02-02T22:57:36;102070.00;;;9.28;73.62
11643;BME280;5877;50.930;6.918;2023-02-02T23:02:29;102051.38;;;9.07;73.75
11643;BME280;5877;50.930;6.918;2023-02-02T23:07:21;102033.41;;;8.96;73.46
11643;BME280;5877;50.930;6.918;2023-02-02T23:12:13;102059.53;;;9.20;73.58
11643;BME280;5877;50.930;6.918;2023-02-02T23:17:06;102046.75;;;9.25;74.11
11643;BME280;5877;50.930;6.918;2023-02-02T23:21:59;101996.59;;;8.89;73.37
11643;BME280;5877;50.930;6.918;2023-02-02T23:26:52;101950.31;;;8.57;73.52
11643;BME280;5877;50.930;6.918;2023-02-02T23:31:45;102033.84;;;9.16;73.47
11643;BME280;5877;50.930;6.918;2023-02-02T23:36:37;101900.78;;;8.31;73.72
11643;BME280;5877;50.930;6.918;2023-02-02T23:41:29;102050.69;;;9.29;73.17
11643;BME280;5877;50.930;6.918;2023-02-02T23:46:21;102048.22;;;9.28;73.33
11643;BME280;5877;50.930;6.918;2023-02-02T23:51:14;102052.34;;;9.22;74.34
11643;BME280;5877;50.930;6.918;2023-02-02T23:56:06;101904.19;;;8.32;74.48
